sensor_id;sensor_type;location;lat;lon;timestamp;temperature;humidity
65770;DHT22;52512;47.650;8.578;2023-06-04T00:01:01;18.60;78.20
65770;DHT22;52512;47.650;8.578;2023-06-04T00:06:21;18.50;78.00
65770;DHT22;52512;47.650;8.578;2023-06-04T00:08:55;18.50;78.20
65770;DHT22;52512;47.650;8.578;2023-06-04T00:11:24;18.50;78.30
65770;DHT22;52512;47.650;8.578;2023-06-04T00:14:09;18.50;78.20
65770;DHT22;52512;47.650;8.578;2023-06-04T00:16:45;18.50;78.00
65770;DHT22;52512;47.650;8.578;2023-06-04T00:19:33;18.50;78.30
65770;DHT22;52512;47.650;8.578;2023-06-04T00:23:06;18.40;78.60
65770;DHT22;52512;47.650;8.578;2023-06-04T00:26:07;18.50;78.50
65770;DHT22;52512;47.650;8.578;2023-06-04T00:28:33;18.40;78.70
65770;DHT22;52512;47.650;8.578;2023-06-04T00:30:59;18.40;79.00
65770;DHT22;52512;47.650;8.578;2023-06-04T00:33:25;18.30;78.80
65770;DHT22;52512;47.650;8.578;2023-06-04T00:35:50;18.30;79.10
65770;DHT22;52512;47.650;8.578;2023-06-04T00:38:16;18.30;79.20
65770;DHT22;52512;47.650;8.578;2023-06-04T00:40:42;18.30;79.40
65770;DHT22;52512;47.650;8.578;2023-06-04T00:43:07;18.20;79.20
65770;DHT22;52512;47.650;8.578;2023-06-04T00:45:33;18.20;79.30
65770;DHT22;52512;47.650;8.578;2023-06-04T00:47:59;18.20;79.50
65770;DHT22;52512;47.650;8.578;2023-06-04T00:50:25;18.10;79.20
65770;DHT22;52512;47.650;8.578;2023-06-04T00:53:00;18.10;79.70
65770;DHT22;52512;47.650;8.578;2023-06-04T00:55:42;18.10;79.50
65770;DHT22;52512;47.650;8.578;2023-06-04T00:58:08;18.10;79.50
65770;DHT22;52512;47.650;8.578;2023-06-04T01:00:35;18.10;79.30
65770;DHT22;52512;47.650;8.578;2023-06-04T01:03:07;18.00;79.60
65770;DHT22;52512;47.650;8.578;2023-06-04T01:05:43;18.10;79.10
65770;DHT22;52512;47.650;8.578;2023-06-04T01:08:13;18.00;79.50
65770;DHT22;52512;47.650;8.578;2023-06-04T01:10:52;18.00;79.70
65770;DHT22;52512;47.650;8.578;2023-06-04T01:13:18;18.00;79.90
65770;DHT22;52512;47.650;8.578;2023-06-04T01:15:53;18.00;79.80
65770;DHT22;52512;47.650;8.578;2023-06-04T01:18:39;18.00;80.00
65770;DHT22;52512;47.650;8.578;2023-06-04T01:21:08;17.90;80.00
65770;DHT22;52512;47.650;8.578;2023-06-04T01:23:46;17.90;80.40
65770;DHT22;52512;47.650;8.578;2023-06-04T01:26:13;17.90;80.90
65770;DHT22;52512;47.650;8.578;2023-06-04T01:28:39;17.80;81.10
65770;DHT22;52512;47.650;8.578;2023-06-04T01:31:06;17.80;80.90
65770;DHT22;52512;47.650;8.578;2023-06-04T01:33:34;17.70;82.40
65770;DHT22;52512;47.650;8.578;2023-06-04T01:36:00;17.70;81.60
65770;DHT22;52512;47.650;8.578;2023-06-04T01:38:27;17.60;82.10
65770;DHT22;52512;47.650;8.578;2023-06-04T01:40:53;17.50;82.50
65770;DHT22;52512;47.650;8.578;2023-06-04T01:43:22;17.70;82.30
65770;DHT22;52512;47.650;8.578;2023-06-04T01:45:48;17.70;82.30
65770;DHT22;52512;47.650;8.578;2023-06-04T01:48:14;17.60;82.90
65770;DHT22;52512;47.650;8.578;2023-06-04T01:50:39;17.60;82.50
65770;DHT22;52512;47.650;8.578;2023-06-04T01:53:05;17.60;82.50
65770;DHT22;52512;47.650;8.578;2023-06-04T01:55:31;17.60;82.70
65770;DHT22;52512;47.650;8.578;2023-06-04T01:57:59;17.60;82.60
65770;DHT22;52512;47.650;8.578;2023-06-04T02:00:25;17.50;82.50
65770;DHT22;52512;47.650;8.578;2023-06-04T02:02:51;17.50;82.50
65770;DHT22;52512;47.650;8.578;2023-06-04T02:05:17;17.50;82.70
65770;DHT22;52512;47.650;8.578;2023-06-04T02:07:44;17.50;82.60
65770;DHT22;52512;47.650;8.578;2023-06-04T02:10:12;17.50;82.70
65770;DHT22;52512;47.650;8.578;2023-06-04T02:12:39;17.40;82.60
65770;DHT22;52512;47.650;8.578;2023-06-04T02:15:06;17.40;83.00
65770;DHT22;52512;47.650;8.578;2023-06-04T02:17:32;17.40;83.20
65770;DHT22;52512;47.650;8.578;2023-06-04T02:20:03;17.40;83.50
65770;DHT22;52512;47.650;8.578;2023-06-04T02:22:29;17.30;83.60
65770;DHT22;52512;47.650;8.578;2023-06-04T02:24:55;17.40;84.30
65770;DHT22;52512;47.650;8.578;2023-06-04T02:27:21;17.30;84.30
65770;DHT22;52512;47.650;8.578;2023-06-04T02:29:47;17.30;84.10
65770;DHT22;52512;47.650;8.578;2023-06-04T02:32:13;17.20;83.90
65770;DHT22;52512;47.650;8.578;2023-06-04T02:34:38;17.30;84.30
65770;DHT22;52512;47.650;8.578;2023-06-04T02:37:04;17.20;84.40
65770;DHT22;52512;47.650;8.578;2023-06-04T02:39:30;17.20;84.40
65770;DHT22;52512;47.650;8.578;2023-06-04T02:41:56;17.20;84.70
65770;DHT22;52512;47.650;8.578;2023-06-04T02:44:21;17.10;84.50
65770;DHT22;52512;47.650;8.578;2023-06-04T02:46:47;17.10;84.30
65770;DHT22;52512;47.650;8.578;2023-06-04T02:49:13;17.10;84.60
65770;DHT22;52512;47.650;8.578;2023-06-04T02:51:43;17.10;85.00
65770;DHT22;52512;47.650;8.578;2023-06-04T02:54:15;17.10;85.00
65770;DHT22;52512;47.650;8.578;2023-06-04T02:56:42;17.00;85.10
65770;DHT22;52512;47.650;8.578;2023-06-04T02:59:09;17.10;85.20
65770;DHT22;52512;47.650;8.578;2023-06-04T03:01:35;17.00;86.40
65770;DHT22;52512;47.650;8.578;2023-06-04T03:04:01;17.00;85.80
65770;DHT22;52512;47.650;8.578;2023-06-04T03:06:30;16.90;86.10
65770;DHT22;52512;47.650;8.578;2023-06-04T03:08:57;16.90;86.40
65770;DHT22;52512;47.650;8.578;2023-06-04T03:11:23;16.90;86.20
65770;DHT22;52512;47.650;8.578;2023-06-04T03:17:02;16.80;86.40
65770;DHT22;52512;47.650;8.578;2023-06-04T03:19:42;16.90;86.30
65770;DHT22;52512;47.650;8.578;2023-06-04T03:22:08;16.80;86.90
65770;DHT22;52512;47.650;8.578;2023-06-04T03:24:36;16.80;86.80
65770;DHT22;52512;47.650;8.578;2023-06-04T03:27:08;16.80;86.10
65770;DHT22;52512;47.650;8.578;2023-06-04T03:29:35;16.80;86.40
65770;DHT22;52512;47.650;8.578;2023-06-04T03:32:02;16.70;86.20
65770;DHT22;52512;47.650;8.578;2023-06-04T03:34:32;16.70;86.40
65770;DHT22;52512;47.650;8.578;2023-06-04T03:36:58;16.70;86.30
65770;DHT22;52512;47.650;8.578;2023-06-04T03:39:25;16.70;86.40
65770;DHT22;52512;47.650;8.578;2023-06-04T03:41:51;16.70;86.50
65770;DHT22;52512;47.650;8.578;2023-06-04T03:44:24;16.70;86.40
65770;DHT22;52512;47.650;8.578;2023-06-04T03:46:53;16.70;86.20
65770;DHT22;52512;47.650;8.578;2023-06-04T03:59:37;16.70;86.70
65770;DHT22;52512;47.650;8.578;2023-06-04T04:02:27;16.70;86.80
65770;DHT22;52512;47.650;8.578;2023-06-04T04:13:57;16.60;87.10
65770;DHT22;52512;47.650;8.578;2023-06-04T04:16:55;16.60;87.20
65770;DHT22;52512;47.650;8.578;2023-06-04T04:19:21;16.60;86.90
65770;DHT22;52512;47.650;8.578;2023-06-04T04:21:47;16.60;87.00
65770;DHT22;52512;47.650;8.578;2023-06-04T04:24:23;16.60;86.90
65770;DHT22;52512;47.650;8.578;2023-06-04T04:26:49;16.60;87.00
65770;DHT22;52512;47.650;8.578;2023-06-04T04:29:22;16.60;87.00
65770;DHT22;52512;47.650;8.578;2023-06-04T04:31:51;16.60;87.00
65770;DHT22;52512;47.650;8.578;2023-06-04T04:34:17;16.60;86.90
65770;DHT22;52512;47.650;8.578;2023-06-04T04:36:46;16.60;86.70
65770;DHT22;52512;47.650;8.578;2023-06-04T04:39:23;16.60;86.60
65770;DHT22;52512;47.650;8.578;2023-06-04T04:48:27;16.60;85.80
65770;DHT22;52512;47.650;8.578;2023-06-04T04:50:53;16.60;85.60
65770;DHT22;52512;47.650;8.578;2023-06-04T04:53:19;16.60;85.60
65770;DHT22;52512;47.650;8.578;2023-06-04T04:55:45;16.60;85.30
65770;DHT22;52512;47.650;8.578;2023-06-04T04:58:11;16.60;85.10
65770;DHT22;52512;47.650;8.578;2023-06-04T05:00:36;16.60;85.10
65770;DHT22;52512;47.650;8.578;2023-06-04T05:03:02;16.60;85.00
65770;DHT22;52512;47.650;8.578;2023-06-04T05:05:28;16.60;84.90
65770;DHT22;52512;47.650;8.578;2023-06-04T05:07:54;16.70;85.40
65770;DHT22;52512;47.650;8.578;2023-06-04T05:10:19;16.60;84.60
65770;DHT22;52512;47.650;8.578;2023-06-04T05:12:55;16.70;84.90
65770;DHT22;52512;47.650;8.578;2023-06-04T05:15:21;16.70;84.80
65770;DHT22;52512;47.650;8.578;2023-06-04T05:17:47;16.70;84.60
65770;DHT22;52512;47.650;8.578;2023-06-04T05:20:14;16.70;84.70
65770;DHT22;52512;47.650;8.578;2023-06-04T05:22:40;16.70;85.00
65770;DHT22;52512;47.650;8.578;2023-06-04T05:25:07;16.70;85.30
65770;DHT22;52512;47.650;8.578;2023-06-04T05:27:33;16.70;85.40
65770;DHT22;52512;47.650;8.578;2023-06-04T05:30:04;16.70;85.30
65770;DHT22;52512;47.650;8.578;2023-06-04T05:32:30;16.70;85.50
65770;DHT22;52512;47.650;8.578;2023-06-04T05:34:58;16.70;85.40
65770;DHT22;52512;47.650;8.578;2023-06-04T05:37:25;16.70;85.50
65770;DHT22;52512;47.650;8.578;2023-06-04T05:40:00;16.70;85.90
65770;DHT22;52512;47.650;8.578;2023-06-04T05:42:25;16.70;85.60
65770;DHT22;52512;47.650;8.578;2023-06-04T05:44:53;16.70;85.80
65770;DHT22;52512;47.650;8.578;2023-06-04T05:47:19;16.70;86.00
65770;DHT22;52512;47.650;8.578;2023-06-04T05:49:45;16.70;86.10
65770;DHT22;52512;47.650;8.578;2023-06-04T05:52:20;16.70;86.70
65770;DHT22;52512;47.650;8.578;2023-06-04T05:54:46;16.70;87.20
65770;DHT22;52512;47.650;8.578;2023-06-04T05:57:12;16.70;86.60
65770;DHT22;52512;47.650;8.578;2023-06-04T05:59:37;16.70;86.70
65770;DHT22;52512;47.650;8.578;2023-06-04T06:02:03;16.80;86.90
65770;DHT22;52512;47.650;8.578;2023-06-04T06:04:29;16.70;86.60
65770;DHT22;52512;47.650;8.578;2023-06-04T06:06:55;16.80;86.70
65770;DHT22;52512;47.650;8.578;2023-06-04T06:09:27;16.80;86.50
65770;DHT22;52512;47.650;8.578;2023-06-04T06:29:28;16.80;86.40
65770;DHT22;52512;47.650;8.578;2023-06-04T06:31:56;16.80;86.90
65770;DHT22;52512;47.650;8.578;2023-06-04T06:34:34;16.80;87.20
65770;DHT22;52512;47.650;8.578;2023-06-04T06:37:09;16.80;86.90
65770;DHT22;52512;47.650;8.578;2023-06-04T06:39:35;16.90;87.00
65770;DHT22;52512;47.650;8.578;2023-06-04T06:42:01;16.90;87.00
65770;DHT22;52512;47.650;8.578;2023-06-04T06:44:26;16.90;86.90
65770;DHT22;52512;47.650;8.578;2023-06-04T06:46:52;16.90;86.70
65770;DHT22;52512;47.650;8.578;2023-06-04T06:49:18;16.90;87.00
65770;DHT22;52512;47.650;8.578;2023-06-04T06:51:44;17.00;86.90
65770;DHT22;52512;47.650;8.578;2023-06-04T06:54:10;17.00;87.10
65770;DHT22;52512;47.650;8.578;2023-06-04T06:56:38;17.00;86.90
65770;DHT22;52512;47.650;8.578;2023-06-04T06:59:06;17.00;86.50
65770;DHT22;52512;47.650;8.578;2023-06-04T07:01:34;17.10;87.00
65770;DHT22;52512;47.650;8.578;2023-06-04T07:04:00;17.10;86.70
65770;DHT22;52512;47.650;8.578;2023-06-04T07:06:26;17.10;87.60
65770;DHT22;52512;47.650;8.578;2023-06-04T07:08:52;17.10;86.80
65770;DHT22;52512;47.650;8.578;2023-06-04T07:11:17;17.20;87.00
65770;DHT22;52512;47.650;8.578;2023-06-04T07:13:43;17.20;86.60
65770;DHT22;52512;47.650;8.578;2023-06-04T07:16:09;17.20;86.80
65770;DHT22;52512;47.650;8.578;2023-06-04T07:18:35;17.30;87.00
65770;DHT22;52512;47.650;8.578;2023-06-04T07:21:00;17.30;86.80
65770;DHT22;52512;47.650;8.578;2023-06-04T07:23:26;17.40;87.20
65770;DHT22;52512;47.650;8.578;2023-06-04T07:25:52;17.40;87.30
65770;DHT22;52512;47.650;8.578;2023-06-04T07:28:18;17.40;88.10
65770;DHT22;52512;47.650;8.578;2023-06-04T07:30:47;17.40;87.60
65770;DHT22;52512;47.650;8.578;2023-06-04T07:33:13;17.50;87.90
65770;DHT22;52512;47.650;8.578;2023-06-04T07:35:39;17.50;87.30
65770;DHT22;52512;47.650;8.578;2023-06-04T07:38:05;17.60;87.70
65770;DHT22;52512;47.650;8.578;2023-06-04T07:40:31;17.60;87.60
65770;DHT22;52512;47.650;8.578;2023-06-04T07:42:56;17.60;87.40
65770;DHT22;52512;47.650;8.578;2023-06-04T07:45:22;17.70;87.80
65770;DHT22;52512;47.650;8.578;2023-06-04T07:47:47;17.70;87.80
65770;DHT22;52512;47.650;8.578;2023-06-04T07:50:13;17.80;87.90
65770;DHT22;52512;47.650;8.578;2023-06-04T07:52:39;17.80;88.00
65770;DHT22;52512;47.650;8.578;2023-06-04T07:55:05;17.80;87.80
65770;DHT22;52512;47.650;8.578;2023-06-04T07:57:31;17.90;87.30
65770;DHT22;52512;47.650;8.578;2023-06-04T07:59:57;17.90;86.50
65770;DHT22;52512;47.650;8.578;2023-06-04T08:02:24;17.90;86.50
65770;DHT22;52512;47.650;8.578;2023-06-04T08:04:51;18.00;86.10
65770;DHT22;52512;47.650;8.578;2023-06-04T08:07:16;18.00;86.10
65770;DHT22;52512;47.650;8.578;2023-06-04T08:09:42;18.00;85.80
65770;DHT22;52512;47.650;8.578;2023-06-04T08:12:12;18.00;85.60
65770;DHT22;52512;47.650;8.578;2023-06-04T08:14:37;18.10;85.60
65770;DHT22;52512;47.650;8.578;2023-06-04T08:17:03;18.10;85.30
65770;DHT22;52512;47.650;8.578;2023-06-04T08:19:29;18.10;85.40
65770;DHT22;52512;47.650;8.578;2023-06-04T08:21:55;18.10;85.20
65770;DHT22;52512;47.650;8.578;2023-06-04T08:24:21;18.10;85.10
65770;DHT22;52512;47.650;8.578;2023-06-04T08:26:47;18.20;85.20
65770;DHT22;52512;47.650;8.578;2023-06-04T08:29:13;18.20;85.10
65770;DHT22;52512;47.650;8.578;2023-06-04T08:31:39;18.30;85.60
65770;DHT22;52512;47.650;8.578;2023-06-04T08:34:05;18.30;84.70
65770;DHT22;52512;47.650;8.578;2023-06-04T08:36:31;18.30;85.10
65770;DHT22;52512;47.650;8.578;2023-06-04T08:38:58;18.30;85.10
65770;DHT22;52512;47.650;8.578;2023-06-04T08:42:15;18.40;85.20
65770;DHT22;52512;47.650;8.578;2023-06-04T08:44:21;18.40;85.60
65770;DHT22;52512;47.650;8.578;2023-06-04T08:46:51;18.50;86.10
65770;DHT22;52512;47.650;8.578;2023-06-04T08:49:19;18.50;85.80
65770;DHT22;52512;47.650;8.578;2023-06-04T08:51:47;18.50;86.00
65770;DHT22;52512;47.650;8.578;2023-06-04T08:54:12;18.60;86.00
65770;DHT22;52512;47.650;8.578;2023-06-04T08:56:39;18.60;85.90
65770;DHT22;52512;47.650;8.578;2023-06-04T08:59:06;18.70;85.50
65770;DHT22;52512;47.650;8.578;2023-06-04T09:01:33;18.70;85.60
65770;DHT22;52512;47.650;8.578;2023-06-04T09:04:03;18.80;85.80
65770;DHT22;52512;47.650;8.578;2023-06-04T09:06:29;18.80;85.50
65770;DHT22;52512;47.650;8.578;2023-06-04T09:09:00;18.80;85.90
65770;DHT22;52512;47.650;8.578;2023-06-04T09:14:14;19.00;86.50
65770;DHT22;52512;47.650;8.578;2023-06-04T09:16:52;19.00;86.60
65770;DHT22;52512;47.650;8.578;2023-06-04T09:19:20;19.10;86.60
65770;DHT22;52512;47.650;8.578;2023-06-04T09:21:55;19.10;86.80
65770;DHT22;52512;47.650;8.578;2023-06-04T09:24:26;19.20;87.10
65770;DHT22;52512;47.650;8.578;2023-06-04T09:27:11;19.30;86.10
65770;DHT22;52512;47.650;8.578;2023-06-04T09:29:38;19.40;86.90
65770;DHT22;52512;47.650;8.578;2023-06-04T09:32:04;19.50;86.90
65770;DHT22;52512;47.650;8.578;2023-06-04T09:34:30;19.60;87.20
65770;DHT22;52512;47.650;8.578;2023-06-04T09:36:57;19.70;87.60
65770;DHT22;52512;47.650;8.578;2023-06-04T09:39:25;19.80;87.20
65770;DHT22;52512;47.650;8.578;2023-06-04T09:42:00;19.90;86.60
65770;DHT22;52512;47.650;8.578;2023-06-04T09:44:28;19.90;86.70
65770;DHT22;52512;47.650;8.578;2023-06-04T09:46:57;20.10;87.00
65770;DHT22;52512;47.650;8.578;2023-06-04T09:49:24;20.20;87.30
65770;DHT22;52512;47.650;8.578;2023-06-04T09:51:50;20.30;86.70
65770;DHT22;52512;47.650;8.578;2023-06-04T09:54:16;20.40;87.60
65770;DHT22;52512;47.650;8.578;2023-06-04T09:56:42;20.50;87.40
65770;DHT22;52512;47.650;8.578;2023-06-04T09:59:09;20.60;86.80
65770;DHT22;52512;47.650;8.578;2023-06-04T10:01:39;20.70;87.20
65770;DHT22;52512;47.650;8.578;2023-06-04T10:04:08;20.90;87.10
65770;DHT22;52512;47.650;8.578;2023-06-04T10:06:35;21.10;86.80
65770;DHT22;52512;47.650;8.578;2023-06-04T10:09:08;21.20;86.80
65770;DHT22;52512;47.650;8.578;2023-06-04T10:11:39;21.30;85.90
65770;DHT22;52512;47.650;8.578;2023-06-04T10:14:23;21.40;85.60
65770;DHT22;52512;47.650;8.578;2023-06-04T10:16:51;21.50;84.90
65770;DHT22;52512;47.650;8.578;2023-06-04T10:19:18;21.70;86.00
65770;DHT22;52512;47.650;8.578;2023-06-04T10:21:45;21.80;85.70
65770;DHT22;52512;47.650;8.578;2023-06-04T10:24:12;22.00;85.40
65770;DHT22;52512;47.650;8.578;2023-06-04T10:26:40;22.20;85.80
65770;DHT22;52512;47.650;8.578;2023-06-04T10:29:06;22.30;85.40
65770;DHT22;52512;47.650;8.578;2023-06-04T10:31:32;22.40;83.50
65770;DHT22;52512;47.650;8.578;2023-06-04T10:33:58;22.50;84.20
65770;DHT22;52512;47.650;8.578;2023-06-04T10:36:24;22.70;83.40
65770;DHT22;52512;47.650;8.578;2023-06-04T10:38:54;22.80;84.20
65770;DHT22;52512;47.650;8.578;2023-06-04T10:41:22;22.90;81.50
65770;DHT22;52512;47.650;8.578;2023-06-04T10:43:49;23.00;81.40
65770;DHT22;52512;47.650;8.578;2023-06-04T10:46:20;23.20;82.30
65770;DHT22;52512;47.650;8.578;2023-06-04T10:51:12;23.50;79.50
65770;DHT22;52512;47.650;8.578;2023-06-04T10:53:39;23.60;78.40
65770;DHT22;52512;47.650;8.578;2023-06-04T10:56:05;23.70;78.80
65770;DHT22;52512;47.650;8.578;2023-06-04T10:58:32;23.70;77.70
65770;DHT22;52512;47.650;8.578;2023-06-04T11:01:00;23.80;76.60
65770;DHT22;52512;47.650;8.578;2023-06-04T11:03:35;23.90;76.50
65770;DHT22;52512;47.650;8.578;2023-06-04T11:06:01;24.00;74.80
65770;DHT22;52512;47.650;8.578;2023-06-04T11:08:29;24.00;74.60
65770;DHT22;52512;47.650;8.578;2023-06-04T11:10:55;24.10;74.70
65770;DHT22;52512;47.650;8.578;2023-06-04T11:13:24;24.20;74.90
65770;DHT22;52512;47.650;8.578;2023-06-04T11:15:53;24.30;74.00
65770;DHT22;52512;47.650;8.578;2023-06-04T11:18:20;24.40;73.50
65770;DHT22;52512;47.650;8.578;2023-06-04T11:20:48;24.50;74.10
65770;DHT22;52512;47.650;8.578;2023-06-04T11:23:16;24.60;73.30
65770;DHT22;52512;47.650;8.578;2023-06-04T11:25:42;24.70;72.60
65770;DHT22;52512;47.650;8.578;2023-06-04T11:28:15;24.80;73.40
65770;DHT22;52512;47.650;8.578;2023-06-04T11:30:42;25.00;73.30
65770;DHT22;52512;47.650;8.578;2023-06-04T11:33:08;24.90;72.20
65770;DHT22;52512;47.650;8.578;2023-06-04T11:35:41;25.00;72.80
65770;DHT22;52512;47.650;8.578;2023-06-04T11:38:08;25.10;72.80
65770;DHT22;52512;47.650;8.578;2023-06-04T11:40:35;25.20;73.00
65770;DHT22;52512;47.650;8.578;2023-06-04T11:43:01;25.30;72.50
65770;DHT22;52512;47.650;8.578;2023-06-04T11:45:28;25.50;72.50
65770;DHT22;52512;47.650;8.578;2023-06-04T11:47:56;25.50;72.40
65770;DHT22;52512;47.650;8.578;2023-06-04T11:50:25;25.50;70.80
65770;DHT22;52512;47.650;8.578;2023-06-04T11:52:52;25.60;70.50
65770;DHT22;52512;47.650;8.578;2023-06-04T11:55:19;25.60;71.00
65770;DHT22;52512;47.650;8.578;2023-06-04T11:57:47;25.70;71.00
65770;DHT22;52512;47.650;8.578;2023-06-04T12:00:15;25.70;71.10
65770;DHT22;52512;47.650;8.578;2023-06-04T12:02:56;25.70;69.30
65770;DHT22;52512;47.650;8.578;2023-06-04T12:05:29;25.70;68.90
65770;DHT22;52512;47.650;8.578;2023-06-04T12:08:11;25.70;68.70
65770;DHT22;52512;47.650;8.578;2023-06-04T12:10:42;25.70;68.20
65770;DHT22;52512;47.650;8.578;2023-06-04T12:13:09;25.80;68.60
65770;DHT22;52512;47.650;8.578;2023-06-04T12:15:35;25.90;69.80
65770;DHT22;52512;47.650;8.578;2023-06-04T12:18:01;25.90;68.70
65770;DHT22;52512;47.650;8.578;2023-06-04T12:20:39;26.00;68.60
65770;DHT22;52512;47.650;8.578;2023-06-04T12:23:06;26.00;68.90
65770;DHT22;52512;47.650;8.578;2023-06-04T12:25:36;26.10;68.40
65770;DHT22;52512;47.650;8.578;2023-06-04T12:28:04;26.20;68.40
65770;DHT22;52512;47.650;8.578;2023-06-04T12:30:40;26.20;68.10
65770;DHT22;52512;47.650;8.578;2023-06-04T12:33:07;26.20;67.50
65770;DHT22;52512;47.650;8.578;2023-06-04T12:35:33;26.30;67.30
65770;DHT22;52512;47.650;8.578;2023-06-04T12:38:03;26.40;66.70
65770;DHT22;52512;47.650;8.578;2023-06-04T12:40:31;26.40;64.80
65770;DHT22;52512;47.650;8.578;2023-06-04T12:42:57;26.40;64.90
65770;DHT22;52512;47.650;8.578;2023-06-04T12:45:23;26.30;64.70
65770;DHT22;52512;47.650;8.578;2023-06-04T12:47:48;26.40;65.50
65770;DHT22;52512;47.650;8.578;2023-06-04T12:50:14;26.40;64.30
65770;DHT22;52512;47.650;8.578;2023-06-04T12:52:40;26.50;64.40
65770;DHT22;52512;47.650;8.578;2023-06-04T12:55:07;26.60;64.60
65770;DHT22;52512;47.650;8.578;2023-06-04T12:57:33;26.50;62.30
65770;DHT22;52512;47.650;8.578;2023-06-04T12:59:58;26.50;63.30
65770;DHT22;52512;47.650;8.578;2023-06-04T13:02:29;26.50;62.50
65770;DHT22;52512;47.650;8.578;2023-06-04T13:04:55;26.60;62.60
65770;DHT22;52512;47.650;8.578;2023-06-04T13:07:21;26.70;62.40
65770;DHT22;52512;47.650;8.578;2023-06-04T13:09:53;26.70;62.90
65770;DHT22;52512;47.650;8.578;2023-06-04T13:12:19;26.80;63.10
65770;DHT22;52512;47.650;8.578;2023-06-04T13:14:45;27.00;63.60
65770;DHT22;52512;47.650;8.578;2023-06-04T13:17:11;27.00;63.40
65770;DHT22;52512;47.650;8.578;2023-06-04T13:19:36;27.10;62.70
65770;DHT22;52512;47.650;8.578;2023-06-04T13:22:02;27.10;62.30
65770;DHT22;52512;47.650;8.578;2023-06-04T13:24:29;27.10;61.60
65770;DHT22;52512;47.650;8.578;2023-06-04T13:26:55;27.20;61.50
65770;DHT22;52512;47.650;8.578;2023-06-04T13:29:21;27.20;62.80
65770;DHT22;52512;47.650;8.578;2023-06-04T13:31:48;27.40;62.80
65770;DHT22;52512;47.650;8.578;2023-06-04T13:34:14;27.30;61.00
65770;DHT22;52512;47.650;8.578;2023-06-04T13:36:40;27.20;60.90
65770;DHT22;52512;47.650;8.578;2023-06-04T13:39:05;27.20;62.40
65770;DHT22;52512;47.650;8.578;2023-06-04T13:41:40;27.20;60.20
65770;DHT22;52512;47.650;8.578;2023-06-04T13:44:06;27.30;60.60
65770;DHT22;52512;47.650;8.578;2023-06-04T13:46:42;27.30;61.30
65770;DHT22;52512;47.650;8.578;2023-06-04T13:49:10;27.40;60.50
65770;DHT22;52512;47.650;8.578;2023-06-04T13:51:35;27.40;59.40
65770;DHT22;52512;47.650;8.578;2023-06-04T13:54:04;27.50;59.50
65770;DHT22;52512;47.650;8.578;2023-06-04T13:57:07;27.50;60.10
65770;DHT22;52512;47.650;8.578;2023-06-04T14:00:02;27.50;59.70
65770;DHT22;52512;47.650;8.578;2023-06-04T14:02:35;27.60;58.90
65770;DHT22;52512;47.650;8.578;2023-06-04T14:05:13;27.60;58.50
65770;DHT22;52512;47.650;8.578;2023-06-04T14:08:05;27.60;58.50
65770;DHT22;52512;47.650;8.578;2023-06-04T14:11:25;27.80;58.50
65770;DHT22;52512;47.650;8.578;2023-06-04T14:14:27;27.80;59.30
65770;DHT22;52512;47.650;8.578;2023-06-04T14:17:07;27.80;58.80
65770;DHT22;52512;47.650;8.578;2023-06-04T14:20:04;27.80;58.80
65770;DHT22;52512;47.650;8.578;2023-06-04T14:22:53;27.80;59.10
65770;DHT22;52512;47.650;8.578;2023-06-04T14:25:27;27.80;58.40
65770;DHT22;52512;47.650;8.578;2023-06-04T14:28:23;27.80;58.40
65770;DHT22;52512;47.650;8.578;2023-06-04T14:34:09;27.80;58.20
65770;DHT22;52512;47.650;8.578;2023-06-04T14:36:38;27.90;57.70
65770;DHT22;52512;47.650;8.578;2023-06-04T14:39:14;27.90;58.40
65770;DHT22;52512;47.650;8.578;2023-06-04T14:41:52;27.90;58.20
65770;DHT22;52512;47.650;8.578;2023-06-04T14:44:21;28.00;57.40
65770;DHT22;52512;47.650;8.578;2023-06-04T14:46:53;27.90;57.60
65770;DHT22;52512;47.650;8.578;2023-06-04T14:49:21;27.90;57.70
65770;DHT22;52512;47.650;8.578;2023-06-04T14:51:47;27.90;58.60
65770;DHT22;52512;47.650;8.578;2023-06-04T14:54:13;27.90;57.90
65770;DHT22;52512;47.650;8.578;2023-06-04T14:56:39;27.90;58.00
65770;DHT22;52512;47.650;8.578;2023-06-04T14:59:09;27.90;57.50
65770;DHT22;52512;47.650;8.578;2023-06-04T15:01:41;27.90;58.10
65770;DHT22;52512;47.650;8.578;2023-06-04T15:04:08;28.00;57.90
65770;DHT22;52512;47.650;8.578;2023-06-04T15:06:34;28.00;58.30
65770;DHT22;52512;47.650;8.578;2023-06-04T15:09:03;28.10;58.10
65770;DHT22;52512;47.650;8.578;2023-06-04T15:11:33;28.00;57.20
65770;DHT22;52512;47.650;8.578;2023-06-04T15:14:17;27.90;57.30
65770;DHT22;52512;47.650;8.578;2023-06-04T15:16:45;27.80;56.80
65770;DHT22;52512;47.650;8.578;2023-06-04T15:19:28;27.80;57.30
65770;DHT22;52512;47.650;8.578;2023-06-04T15:21:53;27.70;56.30
65770;DHT22;52512;47.650;8.578;2023-06-04T15:24:19;27.60;56.20
65770;DHT22;52512;47.650;8.578;2023-06-04T15:26:47;27.50;56.30
65770;DHT22;52512;47.650;8.578;2023-06-04T15:29:27;27.40;55.80
65770;DHT22;52512;47.650;8.578;2023-06-04T15:31:53;27.40;56.90
65770;DHT22;52512;47.650;8.578;2023-06-04T15:34:21;27.30;56.40
65770;DHT22;52512;47.650;8.578;2023-06-04T15:36:49;27.20;56.80
65770;DHT22;52512;47.650;8.578;2023-06-04T15:39:15;27.20;56.80
65770;DHT22;52512;47.650;8.578;2023-06-04T15:41:41;27.10;56.00
65770;DHT22;52512;47.650;8.578;2023-06-04T15:44:09;27.00;57.40
65770;DHT22;52512;47.650;8.578;2023-06-04T15:46:35;26.90;56.90
65770;DHT22;52512;47.650;8.578;2023-06-04T15:49:05;26.90;57.20
65770;DHT22;52512;47.650;8.578;2023-06-04T15:51:32;26.80;57.10
65770;DHT22;52512;47.650;8.578;2023-06-04T15:53:58;26.70;57.30
65770;DHT22;52512;47.650;8.578;2023-06-04T15:56:24;26.70;57.50
65770;DHT22;52512;47.650;8.578;2023-06-04T15:58:49;26.60;56.90
65770;DHT22;52512;47.650;8.578;2023-06-04T16:01:15;26.50;57.20
65770;DHT22;52512;47.650;8.578;2023-06-04T16:03:41;26.40;56.80
65770;DHT22;52512;47.650;8.578;2023-06-04T16:06:06;26.30;57.00
65770;DHT22;52512;47.650;8.578;2023-06-04T16:08:32;26.30;57.10
65770;DHT22;52512;47.650;8.578;2023-06-04T16:10:58;26.20;57.70
65770;DHT22;52512;47.650;8.578;2023-06-04T16:13:23;26.10;57.10
65770;DHT22;52512;47.650;8.578;2023-06-04T16:15:51;26.30;58.00
65770;DHT22;52512;47.650;8.578;2023-06-04T16:18:17;26.30;58.10
65770;DHT22;52512;47.650;8.578;2023-06-04T16:20:43;26.30;58.10
65770;DHT22;52512;47.650;8.578;2023-06-04T16:23:08;26.30;57.90
65770;DHT22;52512;47.650;8.578;2023-06-04T16:25:35;26.20;57.80
65770;DHT22;52512;47.650;8.578;2023-06-04T16:28:01;26.20;57.80
65770;DHT22;52512;47.650;8.578;2023-06-04T16:30:27;26.20;57.20
65770;DHT22;52512;47.650;8.578;2023-06-04T16:32:53;26.20;56.80
65770;DHT22;52512;47.650;8.578;2023-06-04T16:35:19;26.20;56.80
65770;DHT22;52512;47.650;8.578;2023-06-04T16:37:45;26.30;58.50
65770;DHT22;52512;47.650;8.578;2023-06-04T16:40:11;26.20;59.30